Wilmer, TX (75172)

3:37 PM CST on December 07, 2016 (GMT -0600)
westridge addition | | Change Station

Elev 564 ft 32.60 °N, 96.76 °W | Updated 26 seconds ago

Overcast
Overcast
50.4 °F
Feels Like 50.4 °F
N
0.0
Wind Variable Wind from East
Gusts 0.0 mph

Today
High -- | Low -- °F
--% Chance of Precip.
Yesterday
High -- | Low -- °F
Precip. -- in
Pressure 30.10 in
Visibility 10.0 miles
Clouds Overcast 2500 ft
Dew Point 44 °F
Humidity 78%
Rainfall in
Snow Depth Not available.
7:16 AM 5:20 PM
First Quarter, 56% visible
METAR KLNC 072115Z AUTO 00000KT 10SM OVC025 15/11 A3010 RMK AO2 T01530112
Pressure 30.10 in
Visibility 10.0 miles
Clouds Overcast 2500 ft
Dew Point 44 °F
Humidity 78%
Rainfall in
Snow Depth Not available.
7:16 AM 5:20 PM
First Quarter, 56% visible
METAR KLNC 072115Z AUTO 00000KT 10SM OVC025 15/11 A3010 RMK AO2 T01530112

10-Day Weather Forecast

Almanac

Astronomy

Dec. 07, 2016 Rise Set
Actual Time
Civil Twilight
Nautical Twilight
Astronomical Twilight
Moon
Length of Visible Light
Length of Day
Tomorrow will be .
, % of the Moon is Illuminated

Today's Extremes

State Highs State Lows

Community

WunderPhotos

Upload Photos

1,956,181 photos uploaded!

WunderBlog® & News

Nearby

Air Quality

  Air Quality AQ Index Pollutant
Not available.

Snow Depth

Station Depth Elevation

Earthquake Activity

City Distance Mag. Time & Date
Minimum magnitude displayed is 2.5.

Coastal Water Temperatures

Place Temperature

Stations

Nearby Weather Stations

Station Location Temp. Windchill Dew Point Humidity Wind Precip. Elev Updated Type
                   

Watches & Warnings

There are currently no watches in effect.